sensor_id;sensor_type;location;lat;lon;timestamp;P1;durP1;ratioP1;P2;durP2;ratioP2
72406;SDS011;60396;47.550;18.828;2023-07-20T00:02:09;10.38;;;2.20;;
72406;SDS011;60396;47.550;18.828;2023-07-20T00:04:37;9.80;;;2.40;;
72406;SDS011;60396;47.550;18.828;2023-07-20T00:07:05;8.63;;;2.22;;
72406;SDS011;60396;47.550;18.828;2023-07-20T00:09:32;8.02;;;2.10;;
72406;SDS011;60396;47.550;18.828;2023-07-20T00:12:00;7.30;;;2.37;;
72406;SDS011;60396;47.550;18.828;2023-07-20T00:14:28;8.00;;;2.15;;
72406;SDS011;60396;47.550;18.828;2023-07-20T00:16:55;7.37;;;2.25;;
72406;SDS011;60396;47.550;18.828;2023-07-20T00:19:27;8.30;;;2.28;;
72406;SDS011;60396;47.550;18.828;2023-07-20T00:21:55;7.80;;;2.47;;
72406;SDS011;60396;47.550;18.828;2023-07-20T00:24:23;8.00;;;2.23;;
72406;SDS011;60396;47.550;18.828;2023-07-20T00:26:51;7.12;;;2.20;;
72406;SDS011;60396;47.550;18.828;2023-07-20T00:29:19;6.70;;;2.15;;
72406;SDS011;60396;47.550;18.828;2023-07-20T00:31:47;7.22;;;2.60;;
72406;SDS011;60396;47.550;18.828;2023-07-20T00:34:18;10.82;;;2.50;;
72406;SDS011;60396;47.550;18.828;2023-07-20T00:36:45;8.03;;;2.13;;
72406;SDS011;60396;47.550;18.828;2023-07-20T00:39:13;7.75;;;2.15;;
72406;SDS011;60396;47.550;18.828;2023-07-20T00:41:41;7.90;;;1.95;;
72406;SDS011;60396;47.550;18.828;2023-07-20T00:44:08;9.55;;;2.10;;
72406;SDS011;60396;47.550;18.828;2023-07-20T00:46:38;8.07;;;2.25;;
72406;SDS011;60396;47.550;18.828;2023-07-20T00:49:06;8.30;;;2.30;;
72406;SDS011;60396;47.550;18.828;2023-07-20T00:51:33;6.12;;;2.10;;
72406;SDS011;60396;47.550;18.828;2023-07-20T00:54:02;10.85;;;3.12;;
72406;SDS011;60396;47.550;18.828;2023-07-20T00:56:30;9.13;;;3.35;;
72406;SDS011;60396;47.550;18.828;2023-07-20T00:58:57;6.32;;;2.10;;
72406;SDS011;60396;47.550;18.828;2023-07-20T01:01:27;6.37;;;1.90;;
72406;SDS011;60396;47.550;18.828;2023-07-20T01:03:55;9.23;;;2.30;;
72406;SDS011;60396;47.550;18.828;2023-07-20T01:09:19;8.45;;;2.10;;
72406;SDS011;60396;47.550;18.828;2023-07-20T01:12:02;8.98;;;2.67;;
72406;SDS011;60396;47.550;18.828;2023-07-20T01:14:32;9.83;;;2.33;;
72406;SDS011;60396;47.550;18.828;2023-07-20T01:17:02;8.48;;;2.40;;
72406;SDS011;60396;47.550;18.828;2023-07-20T01:19:30;7.30;;;1.90;;
72406;SDS011;60396;47.550;18.828;2023-07-20T01:33:22;8.30;;;2.12;;
72406;SDS011;60396;47.550;18.828;2023-07-20T01:35:55;7.50;;;1.83;;
72406;SDS011;60396;47.550;18.828;2023-07-20T01:38:24;8.77;;;2.10;;
72406;SDS011;60396;47.550;18.828;2023-07-20T01:40:52;6.80;;;2.10;;
72406;SDS011;60396;47.550;18.828;2023-07-20T01:43:20;7.55;;;2.08;;
72406;SDS011;60396;47.550;18.828;2023-07-20T01:45:48;10.30;;;2.08;;
72406;SDS011;60396;47.550;18.828;2023-07-20T01:48:16;7.55;;;2.42;;
72406;SDS011;60396;47.550;18.828;2023-07-20T01:50:43;7.37;;;2.10;;
72406;SDS011;60396;47.550;18.828;2023-07-20T01:53:11;9.70;;;2.10;;
72406;SDS011;60396;47.550;18.828;2023-07-20T01:55:40;9.65;;;2.40;;
72406;SDS011;60396;47.550;18.828;2023-07-20T01:58:08;8.63;;;2.00;;
72406;SDS011;60396;47.550;18.828;2023-07-20T02:00:39;9.48;;;2.35;;
72406;SDS011;60396;47.550;18.828;2023-07-20T02:03:07;6.93;;;1.95;;
72406;SDS011;60396;47.550;18.828;2023-07-20T02:05:34;8.90;;;2.50;;
72406;SDS011;60396;47.550;18.828;2023-07-20T02:08:02;9.38;;;2.25;;
72406;SDS011;60396;47.550;18.828;2023-07-20T02:10:30;6.10;;;1.65;;
72406;SDS011;60396;47.550;18.828;2023-07-20T02:12:58;6.97;;;1.95;;
72406;SDS011;60396;47.550;18.828;2023-07-20T02:15:26;13.00;;;2.60;;
72406;SDS011;60396;47.550;18.828;2023-07-20T02:17:55;8.07;;;2.13;;
72406;SDS011;60396;47.550;18.828;2023-07-20T02:20:23;5.72;;;1.90;;
72406;SDS011;60396;47.550;18.828;2023-07-20T02:22:50;8.10;;;2.17;;
72406;SDS011;60396;47.550;18.828;2023-07-20T02:25:18;9.73;;;2.45;;
72406;SDS011;60396;47.550;18.828;2023-07-20T02:27:46;9.45;;;2.45;;
72406;SDS011;60396;47.550;18.828;2023-07-20T02:30:14;7.73;;;2.13;;
72406;SDS011;60396;47.550;18.828;2023-07-20T02:32:43;8.85;;;2.00;;
72406;SDS011;60396;47.550;18.828;2023-07-20T02:35:16;8.20;;;2.08;;
72406;SDS011;60396;47.550;18.828;2023-07-20T02:37:44;9.70;;;2.05;;
72406;SDS011;60396;47.550;18.828;2023-07-20T02:40:12;7.55;;;2.35;;
72406;SDS011;60396;47.550;18.828;2023-07-20T02:42:40;6.87;;;1.97;;
72406;SDS011;60396;47.550;18.828;2023-07-20T02:45:08;9.52;;;2.60;;
72406;SDS011;60396;47.550;18.828;2023-07-20T02:47:35;10.80;;;2.55;;
72406;SDS011;60396;47.550;18.828;2023-07-20T02:50:06;8.88;;;2.60;;
72406;SDS011;60396;47.550;18.828;2023-07-20T02:52:35;6.95;;;2.33;;
72406;SDS011;60396;47.550;18.828;2023-07-20T02:55:02;10.07;;;2.23;;
72406;SDS011;60396;47.550;18.828;2023-07-20T02:57:30;6.82;;;2.08;;
72406;SDS011;60396;47.550;18.828;2023-07-20T02:59:58;8.00;;;2.10;;
72406;SDS011;60396;47.550;18.828;2023-07-20T03:02:25;10.82;;;2.40;;
72406;SDS011;60396;47.550;18.828;2023-07-20T03:04:53;7.90;;;2.53;;
72406;SDS011;60396;47.550;18.828;2023-07-20T03:10:14;9.68;;;2.15;;
72406;SDS011;60396;47.550;18.828;2023-07-20T03:12:42;7.35;;;2.55;;
72406;SDS011;60396;47.550;18.828;2023-07-20T03:15:10;9.90;;;2.45;;
72406;SDS011;60396;47.550;18.828;2023-07-20T03:17:37;8.43;;;2.08;;
72406;SDS011;60396;47.550;18.828;2023-07-20T03:20:05;5.60;;;2.07;;
72406;SDS011;60396;47.550;18.828;2023-07-20T03:22:36;10.25;;;2.40;;
72406;SDS011;60396;47.550;18.828;2023-07-20T03:25:04;10.82;;;2.20;;
72406;SDS011;60396;47.550;18.828;2023-07-20T03:27:32;8.10;;;2.60;;
72406;SDS011;60396;47.550;18.828;2023-07-20T03:30:00;7.55;;;2.30;;
72406;SDS011;60396;47.550;18.828;2023-07-20T03:32:28;9.53;;;2.50;;
72406;SDS011;60396;47.550;18.828;2023-07-20T03:34:56;6.87;;;1.60;;
72406;SDS011;60396;47.550;18.828;2023-07-20T03:37:27;7.12;;;2.12;;
72406;SDS011;60396;47.550;18.828;2023-07-20T03:39:54;9.50;;;2.10;;
72406;SDS011;60396;47.550;18.828;2023-07-20T03:42:22;7.37;;;2.15;;
72406;SDS011;60396;47.550;18.828;2023-07-20T03:44:50;11.27;;;2.23;;
72406;SDS011;60396;47.550;18.828;2023-07-20T03:47:18;10.68;;;2.30;;
72406;SDS011;60396;47.550;18.828;2023-07-20T03:49:46;6.95;;;2.08;;
72406;SDS011;60396;47.550;18.828;2023-07-20T03:52:13;7.95;;;2.00;;
72406;SDS011;60396;47.550;18.828;2023-07-20T03:54:41;8.20;;;2.28;;
72406;SDS011;60396;47.550;18.828;2023-07-20T03:57:09;8.33;;;2.23;;
72406;SDS011;60396;47.550;18.828;2023-07-20T03:59:37;10.10;;;2.10;;
72406;SDS011;60396;47.550;18.828;2023-07-20T04:02:06;9.23;;;2.45;;
72406;SDS011;60396;47.550;18.828;2023-07-20T04:04:34;6.60;;;2.22;;
72406;SDS011;60396;47.550;18.828;2023-07-20T04:07:02;11.70;;;2.37;;
72406;SDS011;60396;47.550;18.828;2023-07-20T04:09:31;7.63;;;2.30;;
72406;SDS011;60396;47.550;18.828;2023-07-20T04:11:59;9.13;;;2.00;;
72406;SDS011;60396;47.550;18.828;2023-07-20T04:14:27;7.30;;;2.17;;
72406;SDS011;60396;47.550;18.828;2023-07-20T04:16:55;8.25;;;2.67;;
72406;SDS011;60396;47.550;18.828;2023-07-20T04:19:23;6.37;;;2.20;;
72406;SDS011;60396;47.550;18.828;2023-07-20T04:21:50;7.50;;;2.50;;
72406;SDS011;60396;47.550;18.828;2023-07-20T04:24:18;8.82;;;2.40;;
72406;SDS011;60396;47.550;18.828;2023-07-20T04:26:46;7.97;;;2.50;;
72406;SDS011;60396;47.550;18.828;2023-07-20T04:29:14;6.72;;;2.28;;
72406;SDS011;60396;47.550;18.828;2023-07-20T04:31:42;7.47;;;2.35;;
72406;SDS011;60396;47.550;18.828;2023-07-20T04:34:11;7.47;;;1.87;;
72406;SDS011;60396;47.550;18.828;2023-07-20T04:36:38;7.03;;;2.25;;
72406;SDS011;60396;47.550;18.828;2023-07-20T04:39:06;6.70;;;2.20;;
72406;SDS011;60396;47.550;18.828;2023-07-20T04:41:53;9.13;;;2.40;;
72406;SDS011;60396;47.550;18.828;2023-07-20T04:44:21;8.18;;;2.35;;
72406;SDS011;60396;47.550;18.828;2023-07-20T04:46:49;7.23;;;2.07;;
72406;SDS011;60396;47.550;18.828;2023-07-20T04:49:17;7.00;;;1.92;;
72406;SDS011;60396;47.550;18.828;2023-07-20T04:51:45;6.70;;;2.30;;
72406;SDS011;60396;47.550;18.828;2023-07-20T04:54:13;6.00;;;2.00;;
72406;SDS011;60396;47.550;18.828;2023-07-20T04:56:41;8.82;;;2.37;;
72406;SDS011;60396;47.550;18.828;2023-07-20T04:59:09;7.03;;;2.03;;
72406;SDS011;60396;47.550;18.828;2023-07-20T05:01:36;9.38;;;2.45;;
72406;SDS011;60396;47.550;18.828;2023-07-20T05:04:04;8.73;;;2.90;;
72406;SDS011;60396;47.550;18.828;2023-07-20T05:06:35;9.05;;;2.37;;
72406;SDS011;60396;47.550;18.828;2023-07-20T05:09:03;9.32;;;2.35;;
72406;SDS011;60396;47.550;18.828;2023-07-20T05:11:31;10.23;;;2.50;;
72406;SDS011;60396;47.550;18.828;2023-07-20T05:13:59;17.12;;;2.78;;
72406;SDS011;60396;47.550;18.828;2023-07-20T05:16:27;13.23;;;3.12;;
72406;SDS011;60396;47.550;18.828;2023-07-20T05:18:58;10.63;;;2.50;;
72406;SDS011;60396;47.550;18.828;2023-07-20T05:21:25;7.25;;;2.40;;
72406;SDS011;60396;47.550;18.828;2023-07-20T05:23:53;13.03;;;2.77;;
72406;SDS011;60396;47.550;18.828;2023-07-20T05:26:21;11.20;;;3.05;;
72406;SDS011;60396;47.550;18.828;2023-07-20T05:28:49;8.77;;;2.67;;
72406;SDS011;60396;47.550;18.828;2023-07-20T05:31:16;10.57;;;2.83;;
72406;SDS011;60396;47.550;18.828;2023-07-20T05:33:45;13.23;;;2.80;;
72406;SDS011;60396;47.550;18.828;2023-07-20T05:36:12;7.67;;;2.47;;
72406;SDS011;60396;47.550;18.828;2023-07-20T05:38:40;13.48;;;3.47;;
72406;SDS011;60396;47.550;18.828;2023-07-20T05:41:08;10.75;;;2.80;;
72406;SDS011;60396;47.550;18.828;2023-07-20T05:43:37;11.70;;;2.70;;
72406;SDS011;60396;47.550;18.828;2023-07-20T05:46:05;19.12;;;4.68;;
72406;SDS011;60396;47.550;18.828;2023-07-20T05:48:33;7.77;;;2.33;;
72406;SDS011;60396;47.550;18.828;2023-07-20T05:51:00;9.55;;;2.80;;
72406;SDS011;60396;47.550;18.828;2023-07-20T05:53:28;11.82;;;3.00;;
72406;SDS011;60396;47.550;18.828;2023-07-20T05:55:56;8.85;;;2.70;;
72406;SDS011;60396;47.550;18.828;2023-07-20T05:58:23;10.95;;;3.10;;
72406;SDS011;60396;47.550;18.828;2023-07-20T06:00:51;8.13;;;2.70;;
72406;SDS011;60396;47.550;18.828;2023-07-20T06:03:19;9.40;;;2.80;;
72406;SDS011;60396;47.550;18.828;2023-07-20T06:05:49;9.95;;;3.20;;
72406;SDS011;60396;47.550;18.828;2023-07-20T06:08:16;10.82;;;2.83;;
72406;SDS011;60396;47.550;18.828;2023-07-20T06:10:44;12.05;;;3.40;;
72406;SDS011;60396;47.550;18.828;2023-07-20T06:13:12;9.60;;;2.70;;
72406;SDS011;60396;47.550;18.828;2023-07-20T06:15:40;7.95;;;2.92;;
72406;SDS011;60396;47.550;18.828;2023-07-20T06:18:08;8.60;;;3.20;;
72406;SDS011;60396;47.550;18.828;2023-07-20T06:20:36;11.00;;;3.28;;
72406;SDS011;60396;47.550;18.828;2023-07-20T06:23:04;9.38;;;2.90;;
72406;SDS011;60396;47.550;18.828;2023-07-20T06:25:32;7.67;;;2.87;;
72406;SDS011;60396;47.550;18.828;2023-07-20T06:28:00;8.77;;;2.97;;
72406;SDS011;60396;47.550;18.828;2023-07-20T06:30:27;7.80;;;2.90;;
72406;SDS011;60396;47.550;18.828;2023-07-20T06:32:55;9.27;;;3.10;;
72406;SDS011;60396;47.550;18.828;2023-07-20T06:35:23;10.77;;;3.42;;
72406;SDS011;60396;47.550;18.828;2023-07-20T06:37:51;8.57;;;2.90;;
72406;SDS011;60396;47.550;18.828;2023-07-20T06:40:22;9.43;;;3.03;;
72406;SDS011;60396;47.550;18.828;2023-07-20T06:42:52;10.02;;;2.97;;
72406;SDS011;60396;47.550;18.828;2023-07-20T06:45:24;8.25;;;2.67;;
72406;SDS011;60396;47.550;18.828;2023-07-20T06:47:51;9.60;;;2.70;;
72406;SDS011;60396;47.550;18.828;2023-07-20T06:50:19;8.43;;;3.20;;
72406;SDS011;60396;47.550;18.828;2023-07-20T06:52:47;10.90;;;3.00;;
72406;SDS011;60396;47.550;18.828;2023-07-20T06:55:15;10.95;;;2.78;;
72406;SDS011;60396;47.550;18.828;2023-07-20T06:57:50;6.68;;;2.62;;
72406;SDS011;60396;47.550;18.828;2023-07-20T07:00:18;9.70;;;2.97;;
72406;SDS011;60396;47.550;18.828;2023-07-20T07:02:46;10.47;;;2.93;;
72406;SDS011;60396;47.550;18.828;2023-07-20T07:05:17;7.03;;;2.55;;
72406;SDS011;60396;47.550;18.828;2023-07-20T07:07:47;9.55;;;3.03;;
72406;SDS011;60396;47.550;18.828;2023-07-20T07:10:16;11.35;;;2.53;;
72406;SDS011;60396;47.550;18.828;2023-07-20T07:12:44;8.43;;;2.45;;
72406;SDS011;60396;47.550;18.828;2023-07-20T07:15:11;10.00;;;2.80;;
72406;SDS011;60396;47.550;18.828;2023-07-20T07:17:39;9.45;;;2.40;;
72406;SDS011;60396;47.550;18.828;2023-07-20T07:20:07;11.00;;;2.67;;
72406;SDS011;60396;47.550;18.828;2023-07-20T07:22:46;9.32;;;2.75;;
72406;SDS011;60396;47.550;18.828;2023-07-20T07:25:15;7.75;;;2.72;;
72406;SDS011;60396;47.550;18.828;2023-07-20T07:27:49;10.90;;;2.57;;
72406;SDS011;60396;47.550;18.828;2023-07-20T07:30:17;22.80;;;3.03;;
72406;SDS011;60396;47.550;18.828;2023-07-20T07:32:45;11.20;;;2.80;;
72406;SDS011;60396;47.550;18.828;2023-07-20T07:35:13;26.83;;;4.65;;
72406;SDS011;60396;47.550;18.828;2023-07-20T07:37:41;14.02;;;3.20;;
72406;SDS011;60396;47.550;18.828;2023-07-20T07:40:28;9.27;;;1.83;;
72406;SDS011;60396;47.550;18.828;2023-07-20T07:42:56;14.95;;;3.03;;
72406;SDS011;60396;47.550;18.828;2023-07-20T07:45:23;7.32;;;2.28;;
72406;SDS011;60396;47.550;18.828;2023-07-20T07:47:51;14.15;;;2.37;;
72406;SDS011;60396;47.550;18.828;2023-07-20T07:50:19;9.48;;;2.45;;
72406;SDS011;60396;47.550;18.828;2023-07-20T07:52:47;9.17;;;2.20;;
72406;SDS011;60396;47.550;18.828;2023-07-20T07:55:14;7.65;;;2.25;;
72406;SDS011;60396;47.550;18.828;2023-07-20T07:57:45;8.15;;;2.60;;
72406;SDS011;60396;47.550;18.828;2023-07-20T08:00:14;10.75;;;2.10;;
72406;SDS011;60396;47.550;18.828;2023-07-20T08:02:45;8.60;;;2.28;;
72406;SDS011;60396;47.550;18.828;2023-07-20T08:05:16;11.73;;;1.90;;
72406;SDS011;60396;47.550;18.828;2023-07-20T08:07:44;6.05;;;2.20;;
72406;SDS011;60396;47.550;18.828;2023-07-20T08:10:12;7.53;;;2.20;;
72406;SDS011;60396;47.550;18.828;2023-07-20T08:12:40;7.68;;;2.28;;
72406;SDS011;60396;47.550;18.828;2023-07-20T08:15:10;8.45;;;2.50;;
72406;SDS011;60396;47.550;18.828;2023-07-20T08:17:38;10.57;;;1.83;;
72406;SDS011;60396;47.550;18.828;2023-07-20T08:20:07;7.22;;;2.03;;
72406;SDS011;60396;47.550;18.828;2023-07-20T08:22:37;9.70;;;1.98;;
72406;SDS011;60396;47.550;18.828;2023-07-20T08:25:05;8.93;;;2.03;;
72406;SDS011;60396;47.550;18.828;2023-07-20T08:27:33;12.40;;;2.03;;
72406;SDS011;60396;47.550;18.828;2023-07-20T08:30:02;7.73;;;2.13;;
72406;SDS011;60396;47.550;18.828;2023-07-20T08:32:32;6.00;;;1.90;;
72406;SDS011;60396;47.550;18.828;2023-07-20T08:35:00;5.30;;;1.80;;
72406;SDS011;60396;47.550;18.828;2023-07-20T08:37:28;8.57;;;2.35;;
72406;SDS011;60396;47.550;18.828;2023-07-20T08:39:56;6.60;;;2.00;;
72406;SDS011;60396;47.550;18.828;2023-07-20T08:42:23;6.77;;;1.80;;
72406;SDS011;60396;47.550;18.828;2023-07-20T08:44:52;6.87;;;1.83;;
72406;SDS011;60396;47.550;18.828;2023-07-20T08:47:20;9.85;;;2.40;;
72406;SDS011;60396;47.550;18.828;2023-07-20T08:49:48;12.73;;;2.22;;
72406;SDS011;60396;47.550;18.828;2023-07-20T08:52:16;9.93;;;2.03;;
72406;SDS011;60396;47.550;18.828;2023-07-20T08:54:43;10.80;;;2.20;;
72406;SDS011;60396;47.550;18.828;2023-07-20T08:57:11;6.05;;;1.95;;
72406;SDS011;60396;47.550;18.828;2023-07-20T08:59:41;7.25;;;2.10;;
72406;SDS011;60396;47.550;18.828;2023-07-20T09:02:09;8.70;;;1.85;;
72406;SDS011;60396;47.550;18.828;2023-07-20T09:04:45;8.15;;;2.10;;
72406;SDS011;60396;47.550;18.828;2023-07-20T09:07:13;13.30;;;2.20;;
72406;SDS011;60396;47.550;18.828;2023-07-20T09:09:41;13.98;;;2.50;;
72406;SDS011;60396;47.550;18.828;2023-07-20T09:12:13;8.38;;;2.03;;
72406;SDS011;60396;47.550;18.828;2023-07-20T09:14:45;8.88;;;2.55;;
72406;SDS011;60396;47.550;18.828;2023-07-20T09:17:13;8.93;;;2.15;;
72406;SDS011;60396;47.550;18.828;2023-07-20T09:19:47;8.00;;;2.07;;
72406;SDS011;60396;47.550;18.828;2023-07-20T09:22:16;7.37;;;1.90;;
72406;SDS011;60396;47.550;18.828;2023-07-20T09:24:44;8.25;;;2.10;;
72406;SDS011;60396;47.550;18.828;2023-07-20T09:27:12;6.72;;;2.10;;
72406;SDS011;60396;47.550;18.828;2023-07-20T09:29:50;6.05;;;1.98;;
72406;SDS011;60396;47.550;18.828;2023-07-20T09:32:18;7.50;;;2.10;;
72406;SDS011;60396;47.550;18.828;2023-07-20T09:34:51;7.32;;;1.83;;
72406;SDS011;60396;47.550;18.828;2023-07-20T09:37:22;6.95;;;2.10;;
72406;SDS011;60396;47.550;18.828;2023-07-20T09:39:51;7.12;;;1.95;;
72406;SDS011;60396;47.550;18.828;2023-07-20T09:42:22;8.48;;;2.35;;
72406;SDS011;60396;47.550;18.828;2023-07-20T09:44:55;7.83;;;2.37;;
72406;SDS011;60396;47.550;18.828;2023-07-20T09:47:24;6.15;;;2.40;;
72406;SDS011;60396;47.550;18.828;2023-07-20T09:49:58;7.53;;;2.40;;
72406;SDS011;60396;47.550;18.828;2023-07-20T09:52:32;9.60;;;2.33;;
72406;SDS011;60396;47.550;18.828;2023-07-20T09:55:03;10.40;;;2.50;;
72406;SDS011;60396;47.550;18.828;2023-07-20T09:57:31;9.43;;;2.50;;
72406;SDS011;60396;47.550;18.828;2023-07-20T10:00:00;6.40;;;1.83;;
72406;SDS011;60396;47.550;18.828;2023-07-20T10:02:40;9.85;;;2.22;;
72406;SDS011;60396;47.550;18.828;2023-07-20T10:05:13;6.43;;;2.10;;
72406;SDS011;60396;47.550;18.828;2023-07-20T10:07:49;8.25;;;2.45;;
72406;SDS011;60396;47.550;18.828;2023-07-20T10:10:38;6.67;;;1.80;;
72406;SDS011;60396;47.550;18.828;2023-07-20T10:13:13;8.82;;;1.77;;
72406;SDS011;60396;47.550;18.828;2023-07-20T10:16:10;7.82;;;2.15;;
72406;SDS011;60396;47.550;18.828;2023-07-20T10:18:46;10.93;;;2.40;;
72406;SDS011;60396;47.550;18.828;2023-07-20T10:21:17;13.35;;;2.50;;
72406;SDS011;60396;47.550;18.828;2023-07-20T10:23:48;8.80;;;2.20;;
72406;SDS011;60396;47.550;18.828;2023-07-20T10:26:16;21.40;;;2.72;;
72406;SDS011;60396;47.550;18.828;2023-07-20T10:28:44;7.85;;;2.10;;
72406;SDS011;60396;47.550;18.828;2023-07-20T10:31:12;5.47;;;1.52;;
72406;SDS011;60396;47.550;18.828;2023-07-20T10:33:41;13.13;;;2.10;;
72406;SDS011;60396;47.550;18.828;2023-07-20T10:36:09;9.20;;;1.57;;
72406;SDS011;60396;47.550;18.828;2023-07-20T10:41:19;7.50;;;2.00;;
72406;SDS011;60396;47.550;18.828;2023-07-20T10:43:48;5.47;;;1.62;;
72406;SDS011;60396;47.550;18.828;2023-07-20T10:46:41;8.65;;;1.87;;
72406;SDS011;60396;47.550;18.828;2023-07-20T10:49:11;5.50;;;1.73;;
72406;SDS011;60396;47.550;18.828;2023-07-20T10:51:46;9.18;;;1.55;;
72406;SDS011;60396;47.550;18.828;2023-07-20T10:56:43;5.70;;;1.67;;
72406;SDS011;60396;47.550;18.828;2023-07-20T11:01:55;8.07;;;1.93;;
72406;SDS011;60396;47.550;18.828;2023-07-20T11:04:39;7.80;;;1.80;;
72406;SDS011;60396;47.550;18.828;2023-07-20T11:07:08;8.98;;;1.90;;
72406;SDS011;60396;47.550;18.828;2023-07-20T11:09:36;9.98;;;1.80;;
72406;SDS011;60396;47.550;18.828;2023-07-20T11:12:15;5.95;;;1.65;;
72406;SDS011;60396;47.550;18.828;2023-07-20T11:14:55;6.57;;;1.90;;
72406;SDS011;60396;47.550;18.828;2023-07-20T11:17:30;7.07;;;1.98;;
72406;SDS011;60396;47.550;18.828;2023-07-20T11:20:00;5.50;;;1.83;;
72406;SDS011;60396;47.550;18.828;2023-07-20T11:22:32;9.07;;;1.90;;
72406;SDS011;60396;47.550;18.828;2023-07-20T11:25:00;8.15;;;1.98;;
72406;SDS011;60396;47.550;18.828;2023-07-20T11:27:28;6.13;;;1.60;;
72406;SDS011;60396;47.550;18.828;2023-07-20T11:29:56;7.40;;;1.90;;
72406;SDS011;60396;47.550;18.828;2023-07-20T11:32:24;8.73;;;1.83;;
72406;SDS011;60396;47.550;18.828;2023-07-20T11:34:52;7.15;;;1.80;;
72406;SDS011;60396;47.550;18.828;2023-07-20T11:37:19;6.75;;;1.95;;
72406;SDS011;60396;47.550;18.828;2023-07-20T11:39:47;5.07;;;1.77;;
72406;SDS011;60396;47.550;18.828;2023-07-20T11:42:15;7.65;;;1.40;;
72406;SDS011;60396;47.550;18.828;2023-07-20T11:44:45;10.30;;;2.00;;
72406;SDS011;60396;47.550;18.828;2023-07-20T11:47:20;5.82;;;1.87;;
72406;SDS011;60396;47.550;18.828;2023-07-20T11:49:48;8.60;;;2.15;;
72406;SDS011;60396;47.550;18.828;2023-07-20T11:52:22;9.13;;;2.17;;
72406;SDS011;60396;47.550;18.828;2023-07-20T11:54:50;8.50;;;1.85;;
72406;SDS011;60396;47.550;18.828;2023-07-20T11:57:19;9.07;;;1.80;;
72406;SDS011;60396;47.550;18.828;2023-07-20T11:59:57;8.13;;;2.00;;
72406;SDS011;60396;47.550;18.828;2023-07-20T12:02:31;7.80;;;2.30;;
72406;SDS011;60396;47.550;18.828;2023-07-20T12:04:59;7.87;;;1.80;;
72406;SDS011;60396;47.550;18.828;2023-07-20T12:07:27;8.20;;;1.60;;
72406;SDS011;60396;47.550;18.828;2023-07-20T12:12:34;9.07;;;2.17;;
72406;SDS011;60396;47.550;18.828;2023-07-20T12:15:24;6.93;;;1.95;;
72406;SDS011;60396;47.550;18.828;2023-07-20T12:17:59;7.37;;;2.33;;
72406;SDS011;60396;47.550;18.828;2023-07-20T12:23:34;8.52;;;1.90;;
72406;SDS011;60396;47.550;18.828;2023-07-20T12:25:49;9.77;;;1.65;;
72406;SDS011;60396;47.550;18.828;2023-07-20T12:28:17;11.45;;;1.60;;
72406;SDS011;60396;47.550;18.828;2023-07-20T12:30:46;25.10;;;1.80;;
72406;SDS011;60396;47.550;18.828;2023-07-20T12:33:23;5.15;;;1.50;;
72406;SDS011;60396;47.550;18.828;2023-07-20T12:35:51;8.30;;;1.92;;
72406;SDS011;60396;47.550;18.828;2023-07-20T12:38:23;6.90;;;1.48;;
72406;SDS011;60396;47.550;18.828;2023-07-20T12:40:51;9.88;;;1.90;;
72406;SDS011;60396;47.550;18.828;2023-07-20T12:43:18;10.00;;;1.97;;
72406;SDS011;60396;47.550;18.828;2023-07-20T12:45:46;6.55;;;1.85;;
72406;SDS011;60396;47.550;18.828;2023-07-20T12:48:14;7.53;;;2.05;;
72406;SDS011;60396;47.550;18.828;2023-07-20T12:50:42;9.55;;;1.62;;
72406;SDS011;60396;47.550;18.828;2023-07-20T12:53:10;5.07;;;1.50;;
72406;SDS011;60396;47.550;18.828;2023-07-20T12:55:38;5.17;;;1.43;;
72406;SDS011;60396;47.550;18.828;2023-07-20T12:58:07;7.10;;;1.60;;
72406;SDS011;60396;47.550;18.828;2023-07-20T13:00:35;9.23;;;2.20;;
72406;SDS011;60396;47.550;18.828;2023-07-20T13:03:03;5.30;;;1.60;;
72406;SDS011;60396;47.550;18.828;2023-07-20T13:05:35;8.05;;;1.75;;
72406;SDS011;60396;47.550;18.828;2023-07-20T13:08:06;12.57;;;2.10;;
72406;SDS011;60396;47.550;18.828;2023-07-20T13:10:37;5.30;;;1.25;;
72406;SDS011;60396;47.550;18.828;2023-07-20T13:13:06;5.93;;;1.70;;
72406;SDS011;60396;47.550;18.828;2023-07-20T13:15:41;13.73;;;2.15;;
72406;SDS011;60396;47.550;18.828;2023-07-20T13:18:10;7.03;;;1.80;;
72406;SDS011;60396;47.550;18.828;2023-07-20T13:20:38;7.00;;;1.70;;
72406;SDS011;60396;47.550;18.828;2023-07-20T13:23:05;5.87;;;1.60;;
72406;SDS011;60396;47.550;18.828;2023-07-20T13:25:33;4.75;;;1.67;;
72406;SDS011;60396;47.550;18.828;2023-07-20T13:28:01;8.88;;;1.58;;
72406;SDS011;60396;47.550;18.828;2023-07-20T13:30:28;5.68;;;1.73;;
72406;SDS011;60396;47.550;18.828;2023-07-20T13:32:56;8.70;;;2.10;;
72406;SDS011;60396;47.550;18.828;2023-07-20T13:35:24;4.03;;;1.35;;
72406;SDS011;60396;47.550;18.828;2023-07-20T13:37:52;5.68;;;1.58;;
72406;SDS011;60396;47.550;18.828;2023-07-20T13:40:20;5.57;;;1.70;;
72406;SDS011;60396;47.550;18.828;2023-07-20T13:42:49;5.00;;;1.55;;
72406;SDS011;60396;47.550;18.828;2023-07-20T13:45:17;9.60;;;1.70;;
72406;SDS011;60396;47.550;18.828;2023-07-20T13:47:45;4.85;;;1.77;;
72406;SDS011;60396;47.550;18.828;2023-07-20T13:50:17;6.90;;;1.90;;
72406;SDS011;60396;47.550;18.828;2023-07-20T13:52:48;7.53;;;1.75;;
72406;SDS011;60396;47.550;18.828;2023-07-20T13:55:16;6.68;;;1.55;;
72406;SDS011;60396;47.550;18.828;2023-07-20T13:58:04;4.57;;;1.70;;
72406;SDS011;60396;47.550;18.828;2023-07-20T14:00:31;5.65;;;1.58;;
72406;SDS011;60396;47.550;18.828;2023-07-20T14:03:01;5.78;;;1.75;;
72406;SDS011;60396;47.550;18.828;2023-07-20T14:05:32;7.72;;;1.60;;
72406;SDS011;60396;47.550;18.828;2023-07-20T14:08:04;6.12;;;1.85;;
72406;SDS011;60396;47.550;18.828;2023-07-20T14:10:32;8.47;;;1.60;;
72406;SDS011;60396;47.550;18.828;2023-07-20T14:13:00;6.37;;;1.52;;
72406;SDS011;60396;47.550;18.828;2023-07-20T14:15:28;5.70;;;1.73;;
72406;SDS011;60396;47.550;18.828;2023-07-20T14:17:55;7.82;;;1.98;;
72406;SDS011;60396;47.550;18.828;2023-07-20T14:20:23;7.95;;;1.90;;
72406;SDS011;60396;47.550;18.828;2023-07-20T14:22:51;7.30;;;1.60;;
72406;SDS011;60396;47.550;18.828;2023-07-20T14:25:19;6.82;;;1.80;;
72406;SDS011;60396;47.550;18.828;2023-07-20T14:27:46;10.05;;;2.15;;
72406;SDS011;60396;47.550;18.828;2023-07-20T14:30:14;6.40;;;1.60;;
72406;SDS011;60396;47.550;18.828;2023-07-20T14:32:42;6.28;;;1.90;;
72406;SDS011;60396;47.550;18.828;2023-07-20T14:35:10;7.37;;;1.63;;
72406;SDS011;60396;47.550;18.828;2023-07-20T14:37:38;5.12;;;1.42;;
72406;SDS011;60396;47.550;18.828;2023-07-20T14:40:06;6.43;;;1.45;;
72406;SDS011;60396;47.550;18.828;2023-07-20T14:42:35;8.77;;;1.77;;
72406;SDS011;60396;47.550;18.828;2023-07-20T14:45:04;7.32;;;1.80;;
72406;SDS011;60396;47.550;18.828;2023-07-20T14:47:32;5.50;;;1.37;;
72406;SDS011;60396;47.550;18.828;2023-07-20T14:50:02;5.32;;;1.65;;
72406;SDS011;60396;47.550;18.828;2023-07-20T14:52:30;7.78;;;1.95;;
72406;SDS011;60396;47.550;18.828;2023-07-20T14:54:58;4.87;;;1.60;;
72406;SDS011;60396;47.550;18.828;2023-07-20T14:57:26;12.48;;;1.98;;
72406;SDS011;60396;47.550;18.828;2023-07-20T14:59:53;5.40;;;1.90;;
72406;SDS011;60396;47.550;18.828;2023-07-20T15:02:21;6.20;;;1.90;;
72406;SDS011;60396;47.550;18.828;2023-07-20T15:04:49;6.25;;;1.92;;
72406;SDS011;60396;47.550;18.828;2023-07-20T15:07:19;6.97;;;1.80;;
72406;SDS011;60396;47.550;18.828;2023-07-20T15:09:47;7.28;;;1.45;;
72406;SDS011;60396;47.550;18.828;2023-07-20T15:12:15;6.30;;;1.70;;
72406;SDS011;60396;47.550;18.828;2023-07-20T15:14:43;4.62;;;1.40;;